Granite City, IL (62040)

10:55 AM CST on December 29, 2014 (GMT -0600)
EAST GRANITE | Change Station
CLOSE
Current Station
Personal Weather Station
Location: Granite City, IL
Elevation: 423 ft
Nearby Weather Stations

Elev 423 ft 38.70 °N, 90.13 °W | Updated 14 minutes ago

Clear
Clear
34.0 °F
Feels Like 34 °F
N
2.7
Wind Variable Wind from NW

Today
High -- | Low -- °F
--% Chance of Precip.
Yesterday
High -- | Low -- °F
Precip. -- in
7:18 AM 4:47 PM
First Quarter, 60% visible
Pressure 30.37 in
Visibility 8.0 miles
Clouds Clear
Windchill 34 °F
Dew Point 26 °F
Humidity 71%
Rainfall 0.00 in
Snow Depth Not available.
UV 2 out of 12
Pollen 1.50 out of 12
Air Quality Not available.
Flu Activity Not available.
METAR KCPS 291553Z AUTO 04006KT 8SM CLR M01/M03 A3035 RMK AO2 SLP282 T10061033 TSNO

More Conditions Fewer Conditions

Pressure 30.37 in
Visibility 8.0 miles
Clouds Clear
Windchill 34 °F
Dew Point 26 °F
Humidity 71%
Rainfall 0.00 in
Snow Depth Not available.
UV 2 out of 12
Pollen 1.50 out of 12
Air Quality Not available.
Flu Activity Not available.
METAR KCPS 291553Z AUTO 04006KT 8SM CLR M01/M03 A3035 RMK AO2 SLP282 T10061033 TSNO

More Conditions Fewer Conditions

10-Day Weather Forecast

Almanac

Astronomy

Dec. 29, 2014 Rise Set
Actual Time
Civil Twilight
Nautical Twilight
Astronomical Twilight
Moon
Length of Visible Light
Length of Day
Tomorrow will be .
, % of the Moon is Illuminated

Today's Extremes

State Highs State Lows

Community

WunderPhotos

Upload Photos

1,781,648 photos uploaded!

WunderBlogs® & News

Nearby

Air Quality

  Air Quality AQ Index Pollutant
Not available.

Snow Depth

Station Depth Elevation

Earthquake Activity

City Distance Mag. Time & Date
Minimum magnitude displayed is 2.5.

Coastal Water Temperatures

Place Temperature

Nearby Weather Stations